Terminal Aerodrome Forecast
Issued by NWS

Home | Current Version | Previous Version | Text Only | Print | Product List | Glossary On
Versions: 1 2 3 4 5 6 7 8 9 10 11 12 13 14 15 16 17
000
FTPA31 PHFO 212341
TAFMDY
TAF
PMDY 212341Z 2200/2224 07013KT P6SM VCSH SCT020
     FM220900 07010KT 4SM SHRA BR BKN020=

USA.gov is the U.S. government's official web portal to all federal, state and local government web resources and services.